Muskegon, MI (49440)

9:12 AM EST on February 11, 2016 (GMT -0500)
Harvey/Catherine Area | | Change Station
CLOSE
Current Station
Personal Weather Station
Location: Muskegon, MI
Elevation: 653 ft
Nearby Weather Stations
Active Advisory: Winter Weather Advisory Active Notice: Local Storm Report

Elev 653 ft 43.23 °N, 86.20 °W | Updated 0 second ago

Overcast
Overcast
15.9 °F
Feels Like 16 °F
N
1.0
Wind Variable Wind from NNW
Gusts 2.0 mph

Today
High -- | Low -- °F
--% Chance of Precip.
Yesterday
High -- | Low -- °F
Precip. -- in
Pressure 30.25 in
Visibility 9.0 miles
Clouds Overcast 4200 ft
Windchill 16 °F
Dew Point 12 °F
Humidity 85%
Rainfall 0.00 in
Snow Depth Not available.
7:49 AM 6:10 PM
Waxing Crescent, 12% visible
METAR KMKG 111355Z 35005KT 9SM -SN OVC042 M08/M13 A3022 RMK AO2 SLP244 P0000 T10831133
Pressure 30.25 in
Visibility 9.0 miles
Clouds Overcast 4200 ft
Windchill 16 °F
Dew Point 12 °F
Humidity 85%
Rainfall 0.00 in
Snow Depth Not available.
7:49 AM 6:10 PM
Waxing Crescent, 12% visible
METAR KMKG 111355Z 35005KT 9SM -SN OVC042 M08/M13 A3022 RMK AO2 SLP244 P0000 T10831133

10-Day Weather Forecast

Almanac

Astronomy

Feb. 11, 2016 Rise Set
Actual Time
Civil Twilight
Nautical Twilight
Astronomical Twilight
Moon
Length of Visible Light
Length of Day
Tomorrow will be .
, % of the Moon is Illuminated

Today's Extremes

State Highs State Lows

Community

WunderPhotos

Upload Photos

1,892,048 photos uploaded!

WunderBlog® & News

Nearby

Air Quality

  Air Quality AQ Index Pollutant
Not available.

Snow Depth

Station Depth Elevation

Earthquake Activity

City Distance Mag. Time & Date
Minimum magnitude displayed is 2.5.

Coastal Water Temperatures

Place Temperature

Stations

Nearby Weather Stations

Station Location Temp. Windchill Dew Point Humidity Wind Precip. Elev Updated Type
                   

Watches & Warnings

Winter Weather Advisory
Issued: 3:44 AM EST Feb. 11, 2016 – National Weather Service

... Winter Weather Advisory remains in effect until 10 am EST this
morning...

Hazardous weather...

* occasional snow showers through mid morning... then diminishing.

* An additional 1 to 2 inches of snow can be expected through 10
   am. The storm totals will be 4 to 8 inches... with localized
   higher amounts possible.

Impacts...

* roads will be snow covered and slippery.

* Travel slowdowns and accidents possible.

Precautionary/preparedness actions...

* the Michigan Department of Transportation reminds motorists
   to adjust speeds based on the conditions... and to take it
   slow in ice and snow.

* Weather preparedness information is available on line at
   www.Ready.Gov/winter and http://go.USA.Gov/5og.